createdAt,value
2022-09-18T00:01:38.651Z,1.93
2022-09-18T00:04:11.248Z,1.87
2022-09-18T00:06:46.959Z,1.50
2022-09-18T00:09:18.789Z,2.40
2022-09-18T00:11:53.176Z,1.80
2022-09-18T00:14:26.159Z,1.70
2022-09-18T00:16:59.353Z,1.83
2022-09-18T00:19:31.084Z,1.35
2022-09-18T00:22:06.720Z,1.63
2022-09-18T00:24:36.771Z,1.73
2022-09-18T00:27:09.670Z,1.40
2022-09-18T00:29:47.203Z,1.17
2022-09-18T00:32:17.272Z,1.47
2022-09-18T00:34:49.675Z,1.30
2022-09-18T00:37:22.902Z,1.40
2022-09-18T00:39:52.973Z,1.33
2022-09-18T00:42:26.216Z,1.77
2022-09-18T00:44:56.254Z,1.40
2022-09-18T00:47:33.083Z,1.67
2022-09-18T00:50:15.774Z,1.40
2022-09-18T00:53:02.107Z,1.30
2022-09-18T00:55:38.161Z,1.53
2022-09-18T00:58:15.251Z,1.50
2022-09-18T01:00:45.339Z,1.60
2022-09-18T01:03:15.685Z,1.17
2022-09-18T01:06:13.784Z,1.37
2022-09-18T01:09:02.138Z,1.33
2022-09-18T01:11:49.575Z,1.33
2022-09-18T01:14:36.103Z,1.63
2022-09-18T01:17:26.321Z,1.70
2022-09-18T01:20:36.436Z,1.30
2022-09-18T01:23:38.991Z,1.17
2022-09-18T01:26:37.362Z,1.30
2022-09-18T01:29:26.583Z,1.30
2022-09-18T01:32:20.484Z,1.17
2022-09-18T01:35:14.036Z,1.57
2022-09-18T01:38:06.174Z,1.50
2022-09-18T01:40:43.264Z,1.20
2022-09-18T01:43:19.720Z,1.27
2022-09-18T01:45:58.548Z,1.23
2022-09-18T01:48:35.528Z,1.15
2022-09-18T01:51:13.706Z,1.10
2022-09-18T01:53:49.879Z,1.33
2022-09-18T01:56:28.581Z,1.33
2022-09-18T01:59:04.963Z,1.20
2022-09-18T02:01:43.422Z,1.38
2022-09-18T02:04:20.160Z,1.10
2022-09-18T02:07:03.170Z,1.03
2022-09-18T02:09:34.239Z,1.10
2022-09-18T02:12:11.868Z,1.08
2022-09-18T02:14:49.212Z,1.53
2022-09-18T02:17:29.951Z,1.40
2022-09-18T02:20:05.315Z,1.30
2022-09-18T02:22:37.860Z,1.08
2022-09-18T02:25:14.855Z,1.30
2022-09-18T02:27:45.878Z,1.20
2022-09-18T02:30:16.782Z,1.20
2022-09-18T02:32:49.730Z,1.30
2022-09-18T02:35:24.203Z,0.93
2022-09-18T02:38:08.682Z,1.52
2022-09-18T02:40:56.600Z,1.67
2022-09-18T02:43:50.203Z,1.57
2022-09-18T02:46:35.239Z,1.23
2022-09-18T02:49:17.432Z,1.20
2022-09-18T02:51:57.553Z,1.50
2022-09-18T02:54:39.895Z,1.50
2022-09-18T02:57:18.391Z,1.52
2022-09-18T02:59:56.704Z,1.60
2022-09-18T03:02:28.807Z,1.37
2022-09-18T03:05:01.568Z,1.47
2022-09-18T03:07:34.695Z,1.50
2022-09-18T03:10:05.047Z,1.50
2022-09-18T03:12:35.213Z,1.70
2022-09-18T03:15:05.944Z,1.77
2022-09-18T03:17:41.204Z,1.90
2022-09-18T03:20:14.304Z,1.90
2022-09-18T03:22:44.340Z,1.60
2022-09-18T03:25:15.925Z,2.10
2022-09-18T03:27:48.761Z,1.97
2022-09-18T03:30:19.046Z,1.20
2022-09-18T03:32:49.121Z,1.13
2022-09-18T03:35:22.048Z,1.33
2022-09-18T03:37:52.248Z,1.25
2022-09-18T03:40:25.301Z,1.13
2022-09-18T03:42:55.444Z,1.00
2022-09-18T03:45:25.515Z,1.17
2022-09-18T03:47:55.771Z,1.35
2022-09-18T03:50:30.791Z,1.10
2022-09-18T03:53:01.151Z,1.20
2022-09-18T03:55:31.191Z,0.98
2022-09-18T03:58:03.887Z,1.10
2022-09-18T04:00:33.969Z,1.10
2022-09-18T04:03:07.561Z,1.00
2022-09-18T04:05:40.518Z,0.90
2022-09-18T04:08:10.533Z,1.00
2022-09-18T04:10:43.352Z,1.10
2022-09-18T04:13:13.432Z,1.20
2022-09-18T04:15:45.240Z,1.10
2022-09-18T04:18:15.373Z,0.80
2022-09-18T04:20:48.240Z,0.95
2022-09-18T04:23:20.756Z,1.02
2022-09-18T04:25:53.562Z,1.08
2022-09-18T04:28:30.904Z,1.08
2022-09-18T04:31:01.134Z,0.90
2022-09-18T04:33:31.290Z,1.00
2022-09-18T04:36:04.465Z,1.10
2022-09-18T04:38:34.584Z,1.55
2022-09-18T04:41:07.858Z,1.05
2022-09-18T04:43:38.018Z,1.08
2022-09-18T04:46:09.618Z,1.13
2022-09-18T04:48:42.242Z,1.20
2022-09-18T04:51:21.151Z,1.08
2022-09-18T04:53:51.473Z,1.55
2022-09-18T04:56:21.503Z,1.15
2022-09-18T04:58:51.739Z,1.42
2022-09-18T05:01:22.345Z,1.60
2022-09-18T05:03:52.733Z,1.70
2022-09-18T05:06:25.465Z,1.38
2022-09-18T05:08:55.589Z,1.45
2022-09-18T05:11:25.658Z,1.40
2022-09-18T05:13:57.004Z,1.60
2022-09-18T05:16:27.515Z,1.63
2022-09-18T05:18:57.732Z,1.48
2022-09-18T05:21:33.377Z,1.30
2022-09-18T05:24:03.607Z,1.33
2022-09-18T05:26:33.830Z,1.90
2022-09-18T05:29:03.901Z,1.38
2022-09-18T05:31:33.976Z,1.38
2022-09-18T05:34:04.268Z,1.70
2022-09-18T05:36:37.099Z,1.83
2022-09-18T05:39:12.161Z,1.50
2022-09-18T05:41:45.568Z,1.65
2022-09-18T05:44:27.872Z,1.88
2022-09-18T05:46:58.008Z,1.60
2022-09-18T05:49:28.332Z,2.10
2022-09-18T05:52:00.933Z,1.90
2022-09-18T05:54:36.725Z,1.67
2022-09-18T05:57:07.103Z,2.20
2022-09-18T05:59:37.173Z,1.95
2022-09-18T06:02:08.018Z,2.22
2022-09-18T06:04:38.228Z,1.88
2022-09-18T06:07:20.075Z,2.08
2022-09-18T06:09:50.552Z,1.85
2022-09-18T06:12:25.917Z,1.60
2022-09-18T06:14:55.972Z,2.38
2022-09-18T06:17:28.352Z,2.00
2022-09-18T06:19:59.960Z,1.92
2022-09-18T06:22:34.116Z,2.13
2022-09-18T06:25:04.357Z,1.55
2022-09-18T06:27:34.456Z,1.70
2022-09-18T06:30:06.633Z,1.80
2022-09-18T06:32:36.718Z,1.75
2022-09-18T06:35:07.865Z,1.67
2022-09-18T06:37:46.060Z,1.77
2022-09-18T06:40:16.408Z,2.33
2022-09-18T06:42:49.367Z,2.38
2022-09-18T06:45:29.220Z,1.80
2022-09-18T06:48:03.788Z,2.80
2022-09-18T06:50:36.853Z,2.05
2022-09-18T06:53:12.917Z,2.05
2022-09-18T06:55:43.129Z,2.28
2022-09-18T06:58:13.135Z,2.58
2022-09-18T07:00:43.308Z,2.35
2022-09-18T07:03:16.638Z,2.40
2022-09-18T07:05:48.133Z,2.40
2022-09-18T07:08:20.776Z,2.70
2022-09-18T07:10:56.491Z,2.50
2022-09-18T07:13:29.115Z,1.73
2022-09-18T07:15:59.430Z,1.58
2022-09-18T07:18:29.644Z,1.73
2022-09-18T07:21:03.222Z,1.80
2022-09-18T07:23:38.800Z,1.75
2022-09-18T07:26:09.278Z,1.50
2022-09-18T07:28:40.127Z,1.40
2022-09-18T07:31:10.256Z,1.48
2022-09-18T07:33:40.637Z,1.50
2022-09-18T07:36:10.919Z,1.33
2022-09-18T07:38:43.743Z,1.38
2022-09-18T07:41:13.879Z,1.05
2022-09-18T07:43:43.945Z,0.90
2022-09-18T07:46:14.270Z,1.10
2022-09-18T07:51:33.540Z,1.10
2022-09-18T07:54:06.392Z,1.58
2022-09-18T07:56:36.486Z,1.25
2022-09-18T07:59:07.588Z,1.20
2022-09-18T08:01:43.720Z,1.30
2022-09-18T08:04:17.086Z,1.40
2022-09-18T08:06:55.533Z,1.60
2022-09-18T08:09:28.188Z,1.30
2022-09-18T08:11:58.616Z,1.27
2022-09-18T08:14:29.246Z,1.27
2022-09-18T08:17:02.731Z,1.13
2022-09-18T08:19:32.812Z,1.17
2022-09-18T08:22:02.885Z,1.17
2022-09-18T08:24:35.757Z,1.27
2022-09-18T08:27:08.903Z,1.25
2022-09-18T08:29:43.639Z,1.13
2022-09-18T08:32:13.727Z,1.33
2022-09-18T08:34:43.774Z,1.30
2022-09-18T08:37:13.877Z,1.52
2022-09-18T08:39:46.511Z,1.55
2022-09-18T08:42:30.352Z,1.67
2022-09-18T08:45:11.657Z,1.38
2022-09-18T08:47:49.004Z,1.67
2022-09-18T08:50:26.540Z,1.80
2022-09-18T08:53:08.070Z,2.03
2022-09-18T08:55:47.590Z,1.83
2022-09-18T08:58:23.067Z,1.88
2022-09-18T09:01:02.625Z,1.73
2022-09-18T09:03:50.379Z,1.30
2022-09-18T09:06:44.134Z,1.42
2022-09-18T09:09:37.790Z,1.20
2022-09-18T09:12:29.292Z,1.50
2022-09-18T09:15:21.811Z,1.13
2022-09-18T09:18:20.611Z,1.30
2022-09-18T09:20:56.748Z,1.35
2022-09-18T09:23:51.734Z,1.40
2022-09-18T09:26:25.800Z,1.30
2022-09-18T09:29:05.959Z,1.30
2022-09-18T09:31:50.769Z,1.30
2022-09-18T09:34:28.421Z,1.13
2022-09-18T09:37:12.412Z,1.25
2022-09-18T09:39:48.349Z,1.17
2022-09-18T09:42:25.895Z,1.45
2022-09-18T09:45:06.495Z,1.40
2022-09-18T09:47:46.483Z,1.42
2022-09-18T09:50:43.083Z,2.42
2022-09-18T09:53:16.412Z,1.25
2022-09-18T09:56:02.959Z,1.90
2022-09-18T09:58:52.964Z,2.38
2022-09-18T10:01:33.043Z,2.00
2022-09-18T10:04:25.104Z,1.35
2022-09-18T10:07:04.548Z,1.60
2022-09-18T10:09:49.363Z,1.70
2022-09-18T10:12:42.665Z,2.05
2022-09-18T10:15:22.112Z,2.03
2022-09-18T10:18:03.404Z,1.65
2022-09-18T10:20:35.973Z,1.55
2022-09-18T10:23:17.628Z,1.60
2022-09-18T10:25:55.274Z,1.85
2022-09-18T10:28:29.724Z,1.45
2022-09-18T10:31:04.233Z,1.38
2022-09-18T10:33:43.544Z,1.40
2022-09-18T10:36:34.123Z,1.40
2022-09-18T10:39:31.188Z,1.40
2022-09-18T10:42:07.221Z,1.60
2022-09-18T10:44:39.998Z,1.90
2022-09-18T10:47:22.677Z,1.60
2022-09-18T10:50:02.788Z,1.70
2022-09-18T10:52:37.763Z,1.92
2022-09-18T10:55:19.022Z,1.90
2022-09-18T10:58:08.347Z,2.20
2022-09-18T11:00:46.783Z,2.28
2022-09-18T11:03:45.667Z,2.20
2022-09-18T11:06:27.100Z,2.00
2022-09-18T11:09:04.996Z,2.40
2022-09-18T11:11:38.820Z,2.10
2022-09-18T11:14:20.828Z,2.35
2022-09-18T11:16:59.349Z,2.17
2022-09-18T11:19:42.316Z,2.17
2022-09-18T11:22:43.220Z,2.30
2022-09-18T11:25:25.116Z,2.22
2022-09-18T11:28:04.939Z,2.50
2022-09-18T11:30:40.987Z,2.40
2022-09-18T11:33:30.555Z,2.10
2022-09-18T11:36:07.268Z,2.25
2022-09-18T11:38:45.459Z,1.95
2022-09-18T11:41:27.100Z,1.88
2022-09-18T11:44:06.643Z,2.00
2022-09-18T11:46:56.610Z,1.75
2022-09-18T11:49:34.213Z,1.90
2022-09-18T11:52:15.377Z,1.88
2022-09-18T11:54:58.077Z,2.00
2022-09-18T11:57:37.030Z,1.88
2022-09-18T12:00:15.056Z,1.85
2022-09-18T12:02:59.904Z,1.60
2022-09-18T12:05:43.813Z,1.80
2022-09-18T12:08:23.260Z,1.83
2022-09-18T12:11:13.083Z,2.60
2022-09-18T12:14:12.838Z,2.30
2022-09-18T12:16:58.008Z,1.77
2022-09-18T12:19:42.819Z,2.30
2022-09-18T12:22:21.800Z,1.85
2022-09-18T12:24:52.551Z,2.67
2022-09-18T12:27:43.168Z,2.80
2022-09-18T12:30:16.750Z,2.05
2022-09-18T12:33:19.297Z,2.40
2022-09-18T12:36:11.199Z,2.25
2022-09-18T12:39:05.161Z,1.95
2022-09-18T12:41:55.990Z,1.73
2022-09-18T12:45:16.080Z,1.80
2022-09-18T12:48:08.385Z,1.80
2022-09-18T12:51:10.196Z,1.50
2022-09-18T12:54:06.226Z,1.77
2022-09-18T12:57:02.369Z,1.60
2022-09-18T12:59:57.069Z,1.88
2022-09-18T13:02:51.872Z,1.58
2022-09-18T13:05:33.342Z,1.65
2022-09-18T13:08:13.039Z,1.83
2022-09-18T13:10:45.374Z,1.60
2022-09-18T13:13:26.823Z,1.70
2022-09-18T13:16:11.596Z,1.45
2022-09-18T13:18:57.647Z,1.75
2022-09-18T13:21:37.487Z,2.13
2022-09-18T13:24:09.425Z,2.10
2022-09-18T13:26:42.851Z,1.60
2022-09-18T13:29:50.249Z,2.17
2022-09-18T13:32:26.616Z,1.90
2022-09-18T13:34:59.808Z,2.97
2022-09-18T13:37:33.087Z,4.15
2022-09-18T13:40:10.848Z,2.08
2022-09-18T13:42:45.711Z,3.35
2022-09-18T13:45:28.583Z,1.85
2022-09-18T13:48:13.009Z,1.88
2022-09-18T13:50:57.107Z,3.17
2022-09-18T13:53:41.747Z,2.38
2022-09-18T13:56:16.991Z,3.17
2022-09-18T13:58:57.386Z,2.00
2022-09-18T14:02:03.128Z,2.80
2022-09-18T14:05:03.588Z,3.15
2022-09-18T14:08:28.367Z,2.40
2022-09-18T14:11:17.239Z,3.13
2022-09-18T14:14:00.738Z,2.70
2022-09-18T14:16:40.835Z,4.15
2022-09-18T14:19:40.355Z,4.90
2022-09-18T14:22:34.418Z,3.95
2022-09-18T14:25:07.223Z,3.15
2022-09-18T14:28:03.321Z,2.50
2022-09-18T14:30:34.442Z,2.83
2022-09-18T14:33:18.074Z,5.43
2022-09-18T14:35:58.621Z,2.72
2022-09-18T14:38:37.919Z,3.15
2022-09-18T14:41:19.332Z,2.90
2022-09-18T14:44:06.223Z,2.47
2022-09-18T14:46:38.709Z,4.25
2022-09-18T14:49:31.229Z,2.95
2022-09-18T14:52:04.421Z,3.50
2022-09-18T14:54:41.068Z,4.53
2022-09-18T14:57:21.659Z,7.43
2022-09-18T14:59:53.655Z,11.23
2022-09-18T15:02:33.454Z,12.27
2022-09-18T15:05:07.751Z,8.32
2022-09-18T15:07:40.207Z,5.87
2022-09-18T15:10:21.280Z,4.43
2022-09-18T15:12:53.821Z,4.85
2022-09-18T15:15:34.370Z,3.22
2022-09-18T15:18:19.429Z,3.13
2022-09-18T15:20:54.918Z,4.07
2022-09-18T15:23:33.848Z,6.03
2022-09-18T15:26:12.992Z,4.05
2022-09-18T15:28:50.712Z,7.00
2022-09-18T15:31:24.564Z,3.85
2022-09-18T15:34:01.322Z,3.08
2022-09-18T15:36:36.298Z,4.35
2022-09-18T15:39:09.726Z,5.53
2022-09-18T15:41:47.994Z,4.57
2022-09-18T15:45:13.948Z,6.82
2022-09-18T15:47:45.056Z,4.32
2022-09-18T15:50:39.816Z,4.30
2022-09-18T15:53:38.520Z,5.35
2022-09-18T15:56:21.962Z,3.40
2022-09-18T15:59:04.098Z,2.92
2022-09-18T16:01:43.220Z,2.90
2022-09-18T16:04:29.700Z,6.95
2022-09-18T16:07:08.414Z,11.63
2022-09-18T16:09:49.710Z,4.45
2022-09-18T16:12:41.156Z,3.72
2022-09-18T16:15:25.581Z,5.53
2022-09-18T16:18:04.759Z,7.20
2022-09-18T16:20:42.339Z,4.68
2022-09-18T16:23:32.836Z,10.55
2022-09-18T16:26:13.835Z,15.52
2022-09-18T16:28:46.896Z,4.85
2022-09-18T16:31:25.301Z,5.57
2022-09-18T16:34:10.935Z,3.95
2022-09-18T16:36:44.835Z,5.82
2022-09-18T16:39:17.411Z,4.38
2022-09-18T16:41:51.123Z,4.55
2022-09-18T16:44:22.172Z,2.72
2022-09-18T16:47:12.542Z,2.03
2022-09-18T16:49:45.875Z,1.83
2022-09-18T16:52:16.659Z,3.38
2022-09-18T16:54:49.281Z,3.40
2022-09-18T16:57:27.737Z,1.80
2022-09-18T17:00:01.091Z,1.83
2022-09-18T17:02:34.705Z,1.30
2022-09-18T17:05:05.227Z,1.80
2022-09-18T17:07:38.321Z,1.90
2022-09-18T17:10:09.999Z,2.08
2022-09-18T17:12:40.046Z,1.70
2022-09-18T17:15:12.107Z,1.73
2022-09-18T17:17:46.019Z,1.58
2022-09-18T17:20:17.877Z,1.63
2022-09-18T17:22:50.679Z,1.20
2022-09-18T17:25:21.764Z,1.50
2022-09-18T17:27:52.799Z,1.65
2022-09-18T17:30:23.033Z,1.60
2022-09-18T17:32:55.815Z,1.53
2022-09-18T17:35:28.529Z,1.70
2022-09-18T17:37:58.651Z,1.80
2022-09-18T17:40:29.545Z,3.05
2022-09-18T17:42:59.703Z,30.30
2022-09-18T17:45:35.711Z,16.58
2022-09-18T17:48:08.651Z,4.72
2022-09-18T17:50:38.730Z,3.33
2022-09-18T17:53:11.253Z,15.68
2022-09-18T17:55:41.275Z,17.47
2022-09-18T17:58:11.508Z,23.20
2022-09-18T18:00:44.453Z,26.33
2022-09-18T18:03:17.446Z,9.32
2022-09-18T18:05:54.850Z,12.00
2022-09-18T18:08:26.399Z,19.43
2022-09-18T18:10:57.272Z,19.27
2022-09-18T18:13:27.631Z,3.53
2022-09-18T18:15:58.489Z,6.23
2022-09-18T18:18:31.272Z,7.80
2022-09-18T18:21:01.536Z,25.00
2022-09-18T18:23:31.647Z,4.47
2022-09-18T18:26:04.764Z,3.50
2022-09-18T18:28:36.374Z,2.40
2022-09-18T18:31:15.276Z,1.43
2022-09-18T18:33:48.098Z,6.93
2022-09-18T18:36:23.110Z,8.00
2022-09-18T18:38:56.023Z,3.83
2022-09-18T18:41:29.087Z,7.87
2022-09-18T18:44:02.270Z,11.27
2022-09-18T18:46:35.798Z,13.37
2022-09-18T18:49:11.752Z,20.17
2022-09-18T18:51:47.783Z,14.07
2022-09-18T18:54:19.964Z,25.77
2022-09-18T18:56:53.643Z,14.87
2022-09-18T18:59:27.040Z,8.17
2022-09-18T19:01:59.341Z,10.90
2022-09-18T19:04:33.094Z,23.23
2022-09-18T19:07:03.220Z,13.50
2022-09-18T19:09:33.740Z,7.50
2022-09-18T19:12:04.005Z,6.53
2022-09-18T19:14:38.058Z,1.60
2022-09-18T19:17:10.017Z,2.13
2022-09-18T19:19:42.982Z,11.13
2022-09-18T19:22:16.586Z,1.20
2022-09-18T19:24:46.818Z,0.70
2022-09-18T19:27:34.699Z,0.97
2022-09-18T19:30:04.905Z,0.93
2022-09-18T19:32:41.031Z,0.80
2022-09-18T19:35:14.134Z,0.87
2022-09-18T19:37:50.873Z,0.70
2022-09-18T19:40:21.410Z,0.80
2022-09-18T19:43:01.638Z,1.07
2022-09-18T19:45:41.808Z,1.33
2022-09-18T19:48:23.985Z,1.97
2022-09-18T19:50:57.130Z,3.70
2022-09-18T19:53:27.867Z,1.37
2022-09-18T19:55:58.403Z,1.63
2022-09-18T19:58:28.764Z,1.53
2022-09-18T20:01:00.462Z,1.00
2022-09-18T20:03:38.079Z,1.17
2022-09-18T20:06:13.993Z,1.13
2022-09-18T20:08:44.141Z,1.30
2022-09-18T20:11:21.743Z,1.50
2022-09-18T20:13:53.628Z,1.40
2022-09-18T20:16:24.160Z,1.20
2022-09-18T20:18:57.575Z,1.20
2022-09-18T20:21:30.970Z,1.60
2022-09-18T20:24:05.020Z,1.37
2022-09-18T20:26:35.198Z,1.53
2022-09-18T20:29:05.796Z,1.43
2022-09-18T20:31:36.088Z,1.70
2022-09-18T20:34:06.545Z,1.73
2022-09-18T20:36:39.657Z,1.90
2022-09-18T20:39:16.279Z,1.67
2022-09-18T20:41:47.777Z,1.70
2022-09-18T20:44:21.965Z,1.70
2022-09-18T20:46:56.852Z,1.90
2022-09-18T20:49:27.406Z,1.30
2022-09-18T20:52:01.107Z,0.90
2022-09-18T20:54:31.489Z,1.23
2022-09-18T20:57:01.672Z,1.13
2022-09-18T20:59:31.812Z,0.90
2022-09-18T21:02:06.692Z,1.17
2022-09-18T21:04:37.324Z,1.00
2022-09-18T21:07:20.186Z,0.90
2022-09-18T21:09:58.070Z,0.97
2022-09-18T21:12:40.842Z,0.90
2022-09-18T21:15:15.340Z,0.90
2022-09-18T21:17:48.522Z,1.07
2022-09-18T21:20:18.886Z,1.00
2022-09-18T21:23:04.273Z,0.70
2022-09-18T21:25:35.012Z,1.00
2022-09-18T21:28:06.080Z,0.73
2022-09-18T21:30:36.120Z,1.10
2022-09-18T21:33:11.078Z,0.80
2022-09-18T21:35:53.004Z,0.90
2022-09-18T21:38:25.742Z,0.97
2022-09-18T21:40:55.827Z,1.00
2022-09-18T21:43:33.082Z,0.80
2022-09-18T21:46:15.251Z,1.33
2022-09-18T21:48:46.307Z,1.13
2022-09-18T21:51:19.084Z,1.07
2022-09-18T21:53:51.967Z,1.20
2022-09-18T21:56:23.644Z,1.20
2022-09-18T21:58:57.698Z,1.37
2022-09-18T22:01:32.139Z,1.30
2022-09-18T22:04:03.174Z,1.53
2022-09-18T22:06:42.123Z,1.37
2022-09-18T22:09:19.155Z,1.50
2022-09-18T22:11:53.635Z,1.60
2022-09-18T22:14:32.303Z,1.50
2022-09-18T22:17:04.311Z,1.30
2022-09-18T22:19:42.408Z,1.30
2022-09-18T22:22:13.657Z,1.10
2022-09-18T22:24:46.324Z,1.30
2022-09-18T22:27:19.489Z,1.30
2022-09-18T22:29:53.662Z,1.10
2022-09-18T22:32:24.079Z,1.50
2022-09-18T22:34:54.591Z,1.47
2022-09-18T22:37:37.113Z,1.50
2022-09-18T22:40:11.531Z,1.67
2022-09-18T22:42:41.660Z,1.60
2022-09-18T22:45:18.053Z,2.00
2022-09-18T22:47:48.119Z,1.80
2022-09-18T22:50:18.547Z,1.70
2022-09-18T22:52:48.605Z,1.60
2022-09-18T22:55:24.966Z,1.47
2022-09-18T22:57:55.007Z,1.40
2022-09-18T23:00:25.146Z,1.80
2022-09-18T23:02:57.804Z,1.90
2022-09-18T23:05:27.921Z,1.63
2022-09-18T23:08:04.717Z,1.57
2022-09-18T23:10:37.464Z,1.70
2022-09-18T23:13:07.850Z,1.83
2022-09-18T23:15:40.025Z,1.63
2022-09-18T23:18:12.430Z,1.80
2022-09-18T23:20:43.099Z,1.97
2022-09-18T23:23:15.768Z,2.00
2022-09-18T23:25:53.000Z,1.80
2022-09-18T23:28:23.097Z,1.77
2022-09-18T23:30:53.168Z,1.93
2022-09-18T23:33:23.242Z,1.90
2022-09-18T23:35:55.970Z,1.67
2022-09-18T23:38:29.039Z,1.73
2022-09-18T23:41:07.430Z,1.87
2022-09-18T23:43:38.476Z,1.57
2022-09-18T23:46:11.791Z,2.07
2022-09-18T23:48:42.030Z,1.53
2022-09-18T23:51:16.130Z,1.53
2022-09-18T23:53:46.143Z,2.17
2022-09-18T23:56:19.694Z,1.87
2022-09-18T23:58:49.875Z,2.00
